Time;durP1;ratioP1;P1;durP2;ratioP2;P2;SDS_P1;SDS_P2;PMS_P1;PMS_P2;Temp;Humidity;BMP_temperature;BMP_pressure;BME280_temperature;BME280_humidity;BME280_pressure;Samples;Min_cycle;Max_cycle;Signal;HPM_P1;HPM_P2
2022/03/25 00:02:02;;;;;;;36.70;17.23;;;;;;;3.36;52.93;94730.22;5014326;28;20038;-55
2022/03/25 00:04:30;;;;;;;35.22;15.50;;;;;;;3.33;53.19;94740.97;5013809;28;20042;-47
2022/03/25 00:06:56;;;;;;;33.58;15.68;;;;;;;3.26;53.58;94746.19;5016557;28;20045;-49
2022/03/25 00:09:23;;;;;;;32.00;15.37;;;;;;;3.26;53.15;94740.78;5034017;28;20049;-51
2022/03/25 00:11:50;;;;;;;33.03;15.15;;;;;;;3.23;53.27;94738.78;5031937;28;20053;-54
2022/03/25 00:14:17;;;;;;;33.63;15.60;;;;;;;3.19;53.05;94744.09;5033587;28;20053;-52
2022/03/25 00:16:44;;;;;;;29.63;13.02;;;;;;;3.15;53.39;94735.09;5033177;28;20494;-56
2022/03/25 00:19:10;;;;;;;27.58;13.05;;;;;;;3.15;53.39;94741.28;5032222;28;20042;-50
2022/03/25 00:21:37;;;;;;;30.57;14.53;;;;;;;3.09;54.16;94737.25;5032946;28;20468;-47
2022/03/25 00:24:05;;;;;;;31.17;14.75;;;;;;;3.05;53.86;94744.50;5033650;28;20387;-47
2022/03/25 00:26:32;;;;;;;33.17;15.48;;;;;;;2.95;53.76;94740.38;5032706;28;20049;-50
2022/03/25 00:28:59;;;;;;;36.72;15.18;;;;;;;2.90;54.35;94740.66;5033256;28;20453;-53
2022/03/25 00:31:26;;;;;;;32.63;15.05;;;;;;;2.78;54.59;94724.44;5033393;28;20060;-51
2022/03/25 00:33:53;;;;;;;33.27;15.00;;;;;;;2.71;54.48;94727.72;5031214;28;22120;-54
2022/03/25 00:36:23;;;;;;;36.05;16.08;;;;;;;2.68;54.48;94735.78;5033299;28;20053;-50
2022/03/25 00:38:49;;;;;;;38.45;16.95;;;;;;;2.67;54.90;94731.47;5032658;28;20041;-50
2022/03/25 00:41:16;;;;;;;43.08;19.25;;;;;;;2.67;55.43;94726.84;5033186;28;20042;-49
2022/03/25 00:43:47;;;;;;;44.42;20.20;;;;;;;2.64;55.21;94732.19;5032813;28;20053;-48
2022/03/25 00:46:15;;;;;;;50.50;18.50;;;;;;;2.57;55.85;94725.41;5033222;28;20102;-54
2022/03/25 00:48:43;;;;;;;43.25;17.15;;;;;;;2.55;55.59;94730.38;5032702;28;20053;-56
2022/03/25 00:51:10;;;;;;;41.80;16.80;;;;;;;2.50;55.40;94724.44;5033191;28;20109;-49
2022/03/25 00:53:37;;;;;;;37.47;16.45;;;;;;;2.57;56.34;94730.81;5029511;28;20042;-53
2022/03/25 00:56:05;;;;;;;34.95;16.55;;;;;;;2.49;56.07;94722.84;5024801;28;20049;-47
2022/03/25 00:58:33;;;;;;;32.33;15.73;;;;;;;2.50;56.14;94716.31;5027940;28;20046;-51
2022/03/25 01:00:59;;;;;;;35.95;16.58;;;;;;;2.47;56.25;94723.19;5013169;28;20050;-51
2022/03/25 01:03:26;;;;;;;38.05;16.90;;;;;;;2.39;56.33;94722.22;5012909;28;20045;-54
2022/03/25 01:05:53;;;;;;;37.60;16.33;;;;;;;2.27;56.47;94710.59;5012465;28;20088;-48
2022/03/25 01:08:20;;;;;;;38.92;17.02;;;;;;;2.27;56.52;94718.72;5027558;28;20041;-52
2022/03/25 01:10:47;;;;;;;34.77;16.00;;;;;;;2.27;56.76;94719.50;5032288;28;20037;-50
2022/03/25 01:13:14;;;;;;;37.28;17.05;;;;;;;2.14;57.30;94726.09;5032374;28;20045;-50
2022/03/25 01:15:41;;;;;;;53.13;21.77;;;;;;;2.10;57.01;94715.16;5031925;28;20076;-56
2022/03/25 01:18:08;;;;;;;38.15;17.30;;;;;;;2.12;56.83;94712.13;5032241;28;20037;-54
2022/03/25 01:20:35;;;;;;;37.97;17.08;;;;;;;2.12;56.57;94710.19;5032134;28;20102;-52
2022/03/25 01:23:03;;;;;;;41.27;16.97;;;;;;;2.07;56.77;94715.06;5032228;28;20049;-49
2022/03/25 01:25:29;;;;;;;40.58;17.77;;;;;;;2.03;56.88;94711.44;5031934;28;20057;-49
2022/03/25 01:27:56;;;;;;;42.75;18.17;;;;;;;2.00;57.17;94716.41;5032301;28;20037;-51
2022/03/25 01:30:23;;;;;;;43.72;18.42;;;;;;;2.00;57.35;94718.34;5032177;28;20053;-55
2022/03/25 01:32:50;;;;;;;40.03;17.25;;;;;;;2.01;57.39;94719.91;5032084;28;20042;-50
2022/03/25 01:35:22;;;;;;;37.10;17.40;;;;;;;1.99;56.71;94711.34;5032378;28;20045;-54
2022/03/25 01:37:49;;;;;;;33.90;15.55;;;;;;;1.99;57.13;94711.34;5031970;28;20079;-52
2022/03/25 01:40:16;;;;;;;32.05;14.55;;;;;;;1.94;57.30;94712.38;5032159;28;20085;-49
2022/03/25 01:42:43;;;;;;;32.53;15.15;;;;;;;1.88;57.31;94712.94;5031518;28;20049;-51
2022/03/25 01:45:11;;;;;;;33.15;14.73;;;;;;;1.80;57.31;94712.72;5030885;28;20052;-50
2022/03/25 01:47:39;;;;;;;33.80;14.83;;;;;;;1.72;57.96;94712.84;5031201;28;20050;-49
2022/03/25 01:50:18;;;;;;;32.78;14.85;;;;;;;1.66;57.52;94712.28;5030516;28;20390;-48
2022/03/25 01:52:46;;;;;;;34.65;14.60;;;;;;;1.69;58.19;94710.81;5031581;28;20071;-48
2022/03/25 01:55:21;;;;;;;34.17;14.40;;;;;;;1.68;58.34;94710.03;5020545;28;20104;-53
2022/03/25 01:57:50;;;;;;;31.90;14.40;;;;;;;1.58;58.17;94708.56;5011617;28;20060;-50
2022/03/25 02:00:18;;;;;;;31.50;14.43;;;;;;;1.51;58.19;94705.66;5012021;28;20053;-50
2022/03/25 02:02:46;;;;;;;33.05;15.10;;;;;;;1.53;58.62;94708.78;5011383;28;20494;-47
2022/03/25 02:05:13;;;;;;;32.78;15.50;;;;;;;1.45;58.45;94701.59;5011704;28;20502;-48
2022/03/25 02:07:40;;;;;;;36.53;16.48;;;;;;;1.36;59.19;94700.91;5019570;28;20057;-52
2022/03/25 02:10:07;;;;;;;37.15;15.73;;;;;;;1.34;59.59;94701.22;5030306;28;20041;-54
2022/03/25 02:12:35;;;;;;;34.37;15.53;;;;;;;1.24;59.75;94698.97;5030946;28;20049;-49
2022/03/25 02:15:03;;;;;;;34.33;16.20;;;;;;;1.26;60.36;94698.63;5031251;28;20067;-57
2022/03/25 02:17:31;;;;;;;38.22;16.35;;;;;;;1.27;60.19;94698.31;5030645;28;20071;-56
2022/03/25 02:19:57;;;;;;;36.88;16.17;;;;;;;1.28;60.10;94704.50;5030473;28;20045;-51
2022/03/25 02:22:24;;;;;;;33.35;15.85;;;;;;;1.28;59.88;94696.38;5031379;28;20049;-51
2022/03/25 02:24:51;;;;;;;38.43;16.93;;;;;;;1.33;59.89;94704.28;5030929;28;20045;-50
2022/03/25 02:27:18;;;;;;;41.22;18.00;;;;;;;1.16;60.09;94702.56;5031124;28;20049;-56
2022/03/25 02:29:45;;;;;;;38.53;16.75;;;;;;;1.16;59.98;94697.16;5029245;28;20047;-52
2022/03/25 02:32:12;;;;;;;40.65;16.48;;;;;;;1.20;60.25;94692.66;5031159;28;20037;-50
2022/03/25 02:34:39;;;;;;;40.63;17.00;;;;;;;1.16;60.21;94697.94;5030580;28;20042;-51
2022/03/25 02:37:07;;;;;;;41.73;17.07;;;;;;;1.11;60.13;94698.19;5030959;28;20046;-51
2022/03/25 02:39:33;;;;;;;38.42;17.00;;;;;;;1.11;60.00;94702.78;5030386;28;20056;-52
2022/03/25 02:42:00;;;;;;;41.08;17.17;;;;;;;1.02;60.26;94697.47;5030883;28;20087;-50
2022/03/25 02:44:27;;;;;;;39.22;16.67;;;;;;;1.00;60.41;94702.41;5030773;28;20059;-51
2022/03/25 02:46:54;;;;;;;40.15;16.83;;;;;;;0.96;60.42;94698.81;5029805;28;20642;-49
2022/03/25 02:49:21;;;;;;;37.50;16.13;;;;;;;0.89;60.23;94693.97;5029686;28;20041;-52
2022/03/25 02:51:48;;;;;;;39.42;17.48;;;;;;;0.81;60.72;94699.47;5030288;28;20053;-49
2022/03/25 02:54:15;;;;;;;37.30;17.45;;;;;;;0.74;60.91;94702.69;5024785;28;20046;-52
2022/03/25 02:56:42;;;;;;;41.78;18.15;;;;;;;0.69;60.89;94706.41;5021712;28;20062;-55
2022/03/25 02:59:09;;;;;;;41.50;18.75;;;;;;;0.59;61.34;94704.13;5010633;28;20042;-50
2022/03/25 03:01:37;;;;;;;40.03;17.00;;;;;;;0.64;61.75;94713.91;5010373;28;20045;-49
2022/03/25 03:04:04;;;;;;;41.42;17.40;;;;;;;0.66;61.50;94709.75;5010764;28;20055;-56
2022/03/25 03:06:30;;;;;;;44.50;18.70;;;;;;;0.69;61.52;94709.09;5010591;28;20054;-48
2022/03/25 03:08:57;;;;;;;43.58;18.75;;;;;;;0.68;61.64;94701.34;5029080;28;20421;-49
2022/03/25 03:11:24;;;;;;;45.42;19.17;;;;;;;0.67;61.88;94708.66;5030528;28;20049;-49
2022/03/25 03:13:51;;;;;;;43.13;17.63;;;;;;;0.63;61.89;94709.66;5030024;28;20045;-49
2022/03/25 03:16:19;;;;;;;38.38;17.00;;;;;;;0.59;61.83;94710.31;5030478;28;20041;-57
2022/03/25 03:18:46;;;;;;;41.35;16.83;;;;;;;0.61;61.75;94709.97;5028440;28;20072;-51
2022/03/25 03:21:13;;;;;;;34.03;15.45;;;;;;;0.64;61.83;94703.91;5030620;28;20075;-52
2022/03/25 03:23:40;;;;;;;35.15;16.15;;;;;;;0.65;61.60;94705.50;5030111;28;20042;-47
2022/03/25 03:26:07;;;;;;;35.67;15.73;;;;;;;0.66;61.59;94707.06;5030403;28;20067;-49
2022/03/25 03:28:34;;;;;;;34.65;15.10;;;;;;;0.60;61.71;94708.38;5029684;28;20056;-54
2022/03/25 03:31:01;;;;;;;39.42;16.60;;;;;;;0.55;61.61;94711.31;5030165;28;20050;-56
2022/03/25 03:33:27;;;;;;;36.65;15.60;;;;;;;0.53;61.88;94702.75;5028908;28;20111;-51
2022/03/25 03:35:54;;;;;;;34.33;15.27;;;;;;;0.36;62.17;94704.50;5029295;28;20925;-54
2022/03/25 03:38:21;;;;;;;35.60;15.90;;;;;;;0.32;62.47;94698.19;5030022;28;20054;-49
2022/03/25 03:40:48;;;;;;;31.60;14.48;;;;;;;0.28;62.70;94702.66;5028489;28;20083;-51
2022/03/25 03:43:15;;;;;;;30.17;14.80;;;;;;;0.29;63.02;94701.53;5030114;28;20046;-56
2022/03/25 03:45:42;;;;;;;31.30;14.95;;;;;;;0.29;62.20;94698.03;5028180;28;20046;-56
2022/03/25 03:48:09;;;;;;;33.63;15.07;;;;;;;0.29;62.85;94692.66;5029544;28;20041;-50
2022/03/25 03:50:36;;;;;;;35.27;15.23;;;;;;;0.29;62.39;94693.44;5029598;28;20057;-48
2022/03/25 03:53:03;;;;;;;31.27;14.70;;;;;;;0.29;62.41;94687.25;5029813;28;20052;-51
2022/03/25 03:55:31;;;;;;;31.83;14.57;;;;;;;0.28;62.88;94685.66;5029514;28;20061;-50
2022/03/25 03:57:58;;;;;;;32.67;15.23;;;;;;;0.14;63.35;94689.44;5030033;28;20054;-54
2022/03/25 04:00:24;;;;;;;36.10;15.13;;;;;;;0.08;63.63;94690.75;5029819;28;20052;-48
2022/03/25 04:02:51;;;;;;;31.97;14.37;;;;;;;0.12;63.68;94685.47;5029545;28;20482;-57
2022/03/25 04:05:18;;;;;;;32.97;15.15;;;;;;;0.12;63.90;94694.38;5029692;28;20106;-52
2022/03/25 04:07:49;;;;;;;32.95;15.05;;;;;;;0.10;63.73;94693.09;5029328;28;20490;-49
2022/03/25 04:10:18;;;;;;;32.83;14.00;;;;;;;0.08;63.53;94687.25;5029824;28;20175;-56
2022/03/25 04:12:45;;;;;;;33.75;14.65;;;;;;;0.06;63.89;94689.47;5029518;28;20060;-49
2022/03/25 04:15:12;;;;;;;36.97;15.60;;;;;;;0.04;63.73;94689.03;5029948;28;20042;-50
2022/03/25 04:17:42;;;;;;;74.38;24.90;;;;;;;-0.01;64.09;94688.09;5029049;28;20046;-56
2022/03/25 04:20:10;;;;;;;82.70;29.90;;;;;;;0.01;64.02;94689.69;5030020;28;20047;-52
2022/03/25 04:22:37;;;;;;;72.40;26.38;;;;;;;-0.05;64.99;94686.41;5029267;28;20068;-52
2022/03/25 04:25:07;;;;;;;63.10;23.63;;;;;;;-0.02;64.58;94688.41;5028589;28;20393;-52
2022/03/25 04:27:53;;;;;;;57.53;22.70;;;;;;;-0.10;64.91;94694.66;5029177;28;20081;-52
2022/03/25 04:30:26;;;;;;;45.92;18.05;;;;;;;-0.42;65.32;94695.03;5028374;28;20402;-50
2022/03/25 04:32:54;;;;;;;44.67;18.50;;;;;;;-0.57;66.39;94700.22;5029337;28;20055;-54
2022/03/25 04:35:22;;;;;;;37.15;15.95;;;;;;;-1.06;67.63;94703.28;5029372;28;20045;-50
2022/03/25 04:37:50;;;;;;;33.72;15.82;;;;;;;-1.05;67.70;94705.66;5029376;28;20045;-51
2022/03/25 04:40:20;;;;;;;35.47;14.80;;;;;;;-0.78;66.33;94703.63;5027999;28;20037;-46
2022/03/25 04:42:48;;;;;;;38.33;16.27;;;;;;;-0.70;66.45;94702.81;5030110;28;20444;-53
2022/03/25 04:45:18;;;;;;;34.80;15.95;;;;;;;-0.64;66.34;94700.72;5033162;28;20697;-56
2022/03/25 04:47:45;;;;;;;35.38;15.23;;;;;;;-0.64;65.96;94715.00;5032205;28;20084;-57
2022/03/25 04:50:12;;;;;;;39.53;17.15;;;;;;;-0.52;65.88;94708.91;5033167;28;20050;-53
2022/03/25 04:52:39;;;;;;;38.57;16.67;;;;;;;-0.52;65.40;94706.22;5032541;28;20063;-56
2022/03/25 04:55:07;;;;;;;39.28;16.92;;;;;;;-0.52;65.24;94703.50;5032928;28;20402;-52
2022/03/25 04:57:33;;;;;;;42.10;17.73;;;;;;;-0.49;65.40;94707.47;5032443;28;20052;-50
2022/03/25 05:00:00;;;;;;;38.90;15.63;;;;;;;-0.52;65.08;94711.59;5031581;28;20051;-51
2022/03/25 05:02:27;;;;;;;38.63;16.95;;;;;;;-0.51;65.00;94712.38;5024573;28;20047;-47
2022/03/25 05:04:55;;;;;;;39.23;15.77;;;;;;;-0.52;65.58;94716.22;5012511;28;20041;-54
2022/03/25 05:07:22;;;;;;;38.45;15.23;;;;;;;-0.51;65.05;94713.16;5051855;28;20057;-53
2022/03/25 05:09:49;;;;;;;37.97;15.70;;;;;;;-0.61;65.63;94711.63;5032146;28;20037;-52
2022/03/25 05:12:17;;;;;;;34.42;15.75;;;;;;;-0.63;65.88;94719.25;5032491;28;20049;-52
2022/03/25 05:14:44;;;;;;;42.05;16.27;;;;;;;-0.53;65.18;94717.31;5032098;28;20051;-50
2022/03/25 05:17:10;;;;;;;34.80;15.80;;;;;;;-0.64;65.70;94717.69;5032366;28;20050;-47
2022/03/25 05:19:37;;;;;;;37.30;15.15;;;;;;;-0.53;65.52;94720.78;5031939;28;20042;-54
2022/03/25 05:22:05;;;;;;;34.65;14.65;;;;;;;-0.47;65.31;94722.19;5032557;28;20052;-49
2022/03/25 05:24:32;;;;;;;37.50;15.15;;;;;;;-0.48;65.27;94715.22;5031974;28;20504;-54
2022/03/25 05:26:59;;;;;;;32.05;14.68;;;;;;;-0.46;64.54;94717.59;5032032;28;20536;-52
2022/03/25 05:29:26;;;;;;;35.20;15.37;;;;;;;-0.43;64.79;94717.72;5032349;28;20409;-56
2022/03/25 05:31:53;;;;;;;34.20;14.05;;;;;;;-0.39;64.51;94720.56;5031243;28;20525;-48
2022/03/25 05:34:20;;;;;;;34.75;14.95;;;;;;;-0.44;64.84;94721.56;5031971;28;20033;-47
2022/03/25 05:36:47;;;;;;;34.25;15.80;;;;;;;-0.50;65.03;94722.84;5030261;28;20049;-56
2022/03/25 05:39:15;;;;;;;34.20;15.55;;;;;;;-0.42;64.96;94716.63;5030690;28;20049;-50
2022/03/25 05:41:42;;;;;;;36.63;15.10;;;;;;;-0.32;64.79;94723.56;5031423;28;20052;-54
2022/03/25 05:44:09;;;;;;;36.45;15.02;;;;;;;-0.16;64.25;94722.97;5032001;28;20690;-56
2022/03/25 05:46:35;;;;;;;32.05;16.02;;;;;;;-0.11;64.13;94722.78;5031430;28;20056;-51
2022/03/25 05:49:02;;;;;;;36.42;16.17;;;;;;;-0.06;64.00;94723.38;5031681;28;20060;-50
2022/03/25 05:51:29;;;;;;;34.88;15.82;;;;;;;0.08;63.75;94722.31;5031490;28;20057;-49
2022/03/25 05:53:56;;;;;;;39.23;15.97;;;;;;;0.15;63.59;94719.91;5031679;28;20045;-50
2022/03/25 05:56:23;;;;;;;38.90;16.80;;;;;;;0.11;63.59;94724.38;5031887;28;20053;-52
2022/03/25 05:58:50;;;;;;;34.70;16.65;;;;;;;0.20;63.32;94725.09;5031550;28;20048;-51
2022/03/25 06:01:17;;;;;;;38.17;16.17;;;;;;;0.30;62.90;94718.50;5030351;28;20051;-53
2022/03/25 06:03:44;;;;;;;39.58;16.55;;;;;;;0.42;62.71;94713.16;5031173;28;20099;-50
2022/03/25 06:06:11;;;;;;;38.53;16.53;;;;;;;0.18;62.71;94721.94;5031270;28;20064;-51
2022/03/25 06:08:38;;;;;;;38.05;18.33;;;;;;;0.42;61.48;94721.25;5029195;28;20072;-51
2022/03/25 06:11:05;;;;;;;34.40;15.77;;;;;;;0.43;61.70;94719.38;5031508;28;20048;-49
2022/03/25 06:13:32;;;;;;;40.70;17.15;;;;;;;0.51;61.68;94726.59;5030803;28;20498;-52
2022/03/25 06:15:59;;;;;;;39.92;17.90;;;;;;;0.48;61.71;94724.56;5031218;28;20045;-52
2022/03/25 06:18:26;;;;;;;80.07;30.83;;;;;;;0.66;60.79;94727.88;5031089;28;20053;-51
2022/03/25 06:20:52;;;;;;;233.55;72.60;;;;;;;0.75;61.04;94734.00;5029073;28;20053;-52
2022/03/25 06:23:19;;;;;;;196.07;64.57;;;;;;;0.83;60.94;94724.25;5030873;28;20037;-56
2022/03/25 06:25:46;;;;;;;121.68;45.03;;;;;;;0.91;60.48;94729.56;5030373;28;20054;-54
2022/03/25 06:28:13;;;;;;;83.38;31.55;;;;;;;1.00;60.43;94711.31;5030794;28;20046;-52
2022/03/25 06:30:40;;;;;;;51.33;21.63;;;;;;;0.95;61.12;94725.06;5030548;28;20402;-50
2022/03/25 06:33:09;;;;;;;44.03;19.42;;;;;;;1.12;60.57;94721.38;5031066;28;20122;-48
2022/03/25 06:35:37;;;;;;;39.80;16.90;;;;;;;0.97;61.34;94732.84;5030238;28;20065;-50
2022/03/25 06:38:04;;;;;;;47.00;18.17;;;;;;;0.99;61.90;94722.47;5030627;28;20052;-52
2022/03/25 06:40:32;;;;;;;45.60;19.35;;;;;;;1.16;61.06;94729.59;5030344;28;20072;-52
2022/03/25 06:42:58;;;;;;;39.63;18.27;;;;;;;1.13;61.06;94722.97;5030791;28;20042;-52
2022/03/25 06:45:27;;;;;;;44.65;19.75;;;;;;;1.44;60.12;94727.03;5030758;28;20056;-58
2022/03/25 06:47:54;;;;;;;40.58;19.00;;;;;;;1.67;59.99;94727.41;5029677;28;20046;-52
2022/03/25 06:50:24;;;;;;;41.08;19.55;;;;;;;1.83;59.97;94724.00;5030771;28;20041;-56
2022/03/25 06:52:51;;;;;;;42.08;19.77;;;;;;;1.79;60.30;94727.38;5030324;28;20492;-52
2022/03/25 06:55:19;;;;;;;43.03;20.57;;;;;;;1.77;60.94;94726.13;5030720;28;20072;-56
2022/03/25 06:57:49;;;;;;;38.45;19.67;;;;;;;1.93;59.75;94735.16;5030386;28;20053;-51
2022/03/25 07:00:17;;;;;;;41.20;18.58;;;;;;;1.96;59.80;94733.69;5027698;28;20037;-56
2022/03/25 07:02:44;;;;;;;46.58;19.42;;;;;;;2.02;59.74;94736.97;5016991;28;20093;-51
2022/03/25 07:05:13;;;;;;;42.75;18.17;;;;;;;2.06;59.86;94732.44;5029383;28;20048;-55
2022/03/25 07:07:41;;;;;;;39.00;18.60;;;;;;;2.68;58.85;94735.78;5029823;28;20045;-52
2022/03/25 07:10:09;;;;;;;37.17;17.60;;;;;;;3.10;57.27;94741.56;5043374;28;20041;-49
2022/03/25 07:12:41;;;;;;;35.92;17.35;;;;;;;3.09;58.11;94742.69;5049877;28;20076;-50
2022/03/25 07:15:09;;;;;;;41.15;20.48;;;;;;;3.49;56.81;94736.34;5049672;28;20052;-53
2022/03/25 07:17:37;;;;;;;36.90;18.42;;;;;;;4.12;55.38;94737.41;5047889;28;20045;-55
2022/03/25 07:20:06;;;;;;;36.73;18.07;;;;;;;5.97;51.95;94733.16;5050179;28;20051;-49
2022/03/25 07:22:34;;;;;;;41.88;18.70;;;;;;;8.70;43.38;94727.75;5049736;28;20041;-54
2022/03/25 07:25:01;;;;;;;37.05;18.70;;;;;;;9.89;40.21;94734.34;5050240;28;20041;-49
2022/03/25 07:27:28;;;;;;;34.88;19.58;;;;;;;12.88;36.78;94726.19;5037476;28;20061;-53
2022/03/25 07:29:54;;;;;;;33.67;19.17;;;;;;;13.76;32.33;94731.78;5029203;28;20988;-48
2022/03/25 07:32:21;;;;;;;38.23;20.40;;;;;;;14.41;32.33;94729.97;5012851;28;20049;-55
2022/03/25 07:34:48;;;;;;;33.35;19.67;;;;;;;14.64;31.11;94732.00;5029953;28;21740;-53
2022/03/25 07:37:15;;;;;;;31.77;20.02;;;;;;;13.78;32.16;94734.91;5030168;28;20041;-53
2022/03/25 07:39:42;;;;;;;30.40;19.60;;;;;;;16.16;29.37;94718.19;5029857;28;20049;-53
2022/03/25 07:42:08;;;;;;;34.85;21.15;;;;;;;16.34;28.42;94728.84;5029895;28;20056;-54
2022/03/25 07:44:37;;;;;;;33.07;20.73;;;;;;;16.16;28.25;94720.94;5011752;28;20046;-48
2022/03/25 07:47:04;;;;;;;33.30;20.25;;;;;;;16.69;28.34;94720.81;5030043;28;20049;-50
2022/03/25 07:49:32;;;;;;;32.17;19.92;;;;;;;18.94;25.41;94729.22;5029234;28;20044;-49
2022/03/25 07:51:59;;;;;;;32.70;20.13;;;;;;;19.16;24.32;94723.66;5030073;28;20041;-51
2022/03/25 07:54:26;;;;;;;27.52;18.50;;;;;;;19.40;24.71;94730.78;5030054;28;20050;-47
2022/03/25 07:56:57;;;;;;;31.63;19.43;;;;;;;19.31;24.29;94721.13;5029527;28;20041;-56
2022/03/25 07:59:25;;;;;;;31.98;20.50;;;;;;;19.68;24.29;94715.81;5030133;28;20072;-53
2022/03/25 08:01:53;;;;;;;31.60;20.02;;;;;;;20.20;23.59;94716.22;5029217;28;20041;-51
2022/03/25 08:04:26;;;;;;;30.48;19.38;;;;;;;21.20;22.73;94716.13;5029713;28;20057;-53
2022/03/25 08:06:54;;;;;;;32.03;21.55;;;;;;;23.37;20.07;94713.84;5028097;28;20037;-50
2022/03/25 08:09:21;;;;;;;34.37;20.67;;;;;;;23.32;20.01;94716.06;5029466;28;20413;-51
2022/03/25 08:11:48;;;;;;;26.88;18.88;;;;;;;22.44;21.31;94722.84;5028010;28;20416;-48
2022/03/25 08:14:18;;;;;;;29.05;20.13;;;;;;;22.97;20.28;94717.84;5029685;28;20033;-48
2022/03/25 08:16:45;;;;;;;29.42;20.05;;;;;;;21.93;21.25;94707.66;5027781;28;20044;-49
2022/03/25 08:19:12;;;;;;;30.27;19.92;;;;;;;23.64;20.12;94724.00;5032602;28;20512;-53
2022/03/25 08:21:39;;;;;;;30.33;20.20;;;;;;;23.01;19.64;94721.25;5032996;28;20049;-53
2022/03/25 08:29:37;;;;;;;34.08;22.17;;;;;;;22.16;20.34;94713.00;5033027;28;20067;-51
2022/03/25 08:32:04;;;;;;;28.17;20.42;;;;;;;23.62;18.92;94713.28;5033311;28;20040;-49
2022/03/25 08:34:31;;;;;;;33.00;20.53;;;;;;;24.48;18.03;94713.44;5032781;28;20500;-52
2022/03/25 08:36:58;;;;;;;30.30;20.33;;;;;;;25.75;17.02;94713.22;5033064;28;20106;-49
2022/03/25 08:39:25;;;;;;;30.10;19.83;;;;;;;22.76;20.47;94719.69;5033178;28;20042;-56
2022/03/25 08:41:52;;;;;;;30.02;20.40;;;;;;;26.35;16.64;94716.34;5031392;28;20084;-54
2022/03/25 08:44:18;;;;;;;29.92;19.70;;;;;;;26.37;16.54;94710.97;5032926;28;20038;-53
2022/03/25 08:46:45;;;;;;;27.40;19.97;;;;;;;26.01;16.85;94716.06;5032435;28;20045;-51
2022/03/25 08:49:12;;;;;;;34.78;21.42;;;;;;;26.63;16.60;94711.69;5032916;28;20091;-52
2022/03/25 08:51:40;;;;;;;35.03;21.60;;;;;;;25.65;17.82;94718.25;5032491;28;20197;-53
2022/03/25 08:54:08;;;;;;;32.92;20.80;;;;;;;25.50;18.18;94713.50;5032949;28;20037;-55
2022/03/25 08:56:35;;;;;;;30.45;20.48;;;;;;;27.68;16.44;94716.75;5032364;28;20068;-53
2022/03/25 08:59:02;;;;;;;31.57;21.80;;;;;;;22.74;20.12;94718.16;5032740;28;20050;-55
2022/03/25 09:01:29;;;;;;;30.40;21.25;;;;;;;26.62;16.96;94707.34;5032331;28;20071;-53
2022/03/25 09:03:56;;;;;;;29.67;21.20;;;;;;;25.72;17.68;94712.19;5032470;28;20049;-52
2022/03/25 09:06:23;;;;;;;26.00;19.80;;;;;;;26.79;16.68;94698.97;5032841;28;20046;-51
2022/03/25 09:08:51;;;;;;;26.75;19.88;;;;;;;27.08;16.03;94713.97;5031835;28;20071;-57
2022/03/25 09:11:18;;;;;;;28.77;21.17;;;;;;;26.44;16.76;94710.50;5032389;28;20037;-53
2022/03/25 09:13:45;;;;;;;30.50;19.92;;;;;;;27.18;16.73;94708.88;5032058;28;20037;-58
2022/03/25 09:16:13;;;;;;;28.50;20.48;;;;;;;28.85;15.03;94692.66;5032684;28;20041;-51
2022/03/25 09:18:40;;;;;;;26.42;20.77;;;;;;;27.10;15.20;94706.56;5031821;28;20755;-54
2022/03/25 09:21:07;;;;;;;27.85;21.27;;;;;;;23.15;19.52;94708.56;5032601;28;20049;-52
2022/03/25 09:23:34;;;;;;;26.77;19.83;;;;;;;27.62;16.13;94704.69;5027686;28;20041;-53
2022/03/25 09:26:01;;;;;;;28.77;20.98;;;;;;;27.27;15.84;94703.06;5015478;28;20494;-52
2022/03/25 09:28:28;;;;;;;27.58;19.42;;;;;;;27.64;15.51;94704.97;5031552;28;20053;-52
2022/03/25 09:30:56;;;;;;;28.35;19.67;;;;;;;27.91;14.54;94700.69;5031316;28;20827;-55
2022/03/25 09:33:22;;;;;;;25.27;19.52;;;;;;;30.06;13.29;94698.00;5032394;28;20045;-56
2022/03/25 09:35:49;;;;;;;25.47;18.87;;;;;;;32.36;12.25;94691.00;5031937;28;20080;-55
2022/03/25 09:38:16;;;;;;;29.08;20.33;;;;;;;25.30;16.06;94699.47;5032184;28;20045;-52
2022/03/25 09:40:43;;;;;;;28.63;20.08;;;;;;;25.05;17.34;94690.50;5030263;28;20520;-51
2022/03/25 09:43:11;;;;;;;26.65;19.45;;;;;;;29.26;13.28;94689.22;5031710;28;20049;-57
2022/03/25 09:45:39;;;;;;;24.77;18.85;;;;;;;30.32;12.07;94682.66;5031663;28;20118;-55
2022/03/25 09:48:07;;;;;;;23.27;17.37;;;;;;;31.34;10.40;94682.38;5031732;28;20064;-57
2022/03/25 09:50:36;;;;;;;22.67;17.98;;;;;;;32.86;9.47;94688.59;5031283;28;20056;-57
2022/03/25 09:53:05;;;;;;;20.85;15.82;;;;;;;33.83;8.86;94679.66;5031615;28;20047;-52
2022/03/25 09:55:40;;;;;;;23.45;16.13;;;;;;;34.19;8.36;94679.88;5030037;28;20064;-55
2022/03/25 09:58:18;;;;;;;20.60;16.23;;;;;;;32.89;9.42;94678.97;5030607;28;20042;-53
2022/03/25 10:00:50;;;;;;;21.43;16.10;;;;;;;26.51;12.54;94685.47;5031321;28;20061;-55
2022/03/25 10:03:23;;;;;;;21.05;15.82;;;;;;;27.42;12.40;94677.47;5030443;28;20056;-50
2022/03/25 10:05:58;;;;;;;20.70;15.90;;;;;;;26.49;12.75;94670.38;5031225;28;20407;-56
2022/03/25 10:08:42;;;;;;;20.98;15.48;;;;;;;29.62;10.75;94665.88;5031000;28;20102;-52
2022/03/25 10:11:18;;;;;;;21.90;15.52;;;;;;;29.13;11.16;94669.22;5031642;28;20041;-56
2022/03/25 10:13:45;;;;;;;19.13;15.57;;;;;;;27.86;11.36;94670.38;5031098;28;20056;-54
2022/03/25 10:16:28;;;;;;;20.85;16.40;;;;;;;29.12;10.95;94661.25;5031263;28;20053;-52
2022/03/25 10:18:56;;;;;;;20.17;15.52;;;;;;;28.75;11.11;94656.75;5030380;28;20041;-52
2022/03/25 10:21:24;;;;;;;19.65;15.05;;;;;;;28.50;11.30;94659.38;5030553;28;20060;-52
2022/03/25 10:23:52;;;;;;;20.25;15.75;;;;;;;30.85;10.24;94652.00;5030308;28;20049;-54
2022/03/25 10:26:19;;;;;;;19.70;15.33;;;;;;;31.02;9.63;94652.59;5030845;28;20071;-54
2022/03/25 10:28:47;;;;;;;20.25;14.98;;;;;;;27.27;11.78;94663.63;5030456;28;20425;-52
2022/03/25 10:31:17;;;;;;;25.85;17.63;;;;;;;27.30;12.22;94642.84;5030960;28;20483;-55
2022/03/25 10:33:54;;;;;;;20.67;15.43;;;;;;;24.99;14.04;94652.34;5030621;28;20155;-56
2022/03/25 10:36:25;;;;;;;18.95;14.95;;;;;;;28.88;11.25;94645.66;5029650;28;20142;-54
2022/03/25 10:38:54;;;;;;;20.83;15.17;;;;;;;30.41;9.58;94645.50;5030735;28;20053;-52
2022/03/25 10:41:25;;;;;;;21.58;15.82;;;;;;;27.76;11.49;94644.47;5030221;28;20041;-50
2022/03/25 10:43:53;;;;;;;22.92;15.63;;;;;;;28.32;11.25;94651.44;5030201;28;20052;-57
2022/03/25 10:46:29;;;;;;;21.75;15.35;;;;;;;28.48;11.14;94633.69;5030829;28;20067;-50
2022/03/25 10:48:58;;;;;;;23.50;16.63;;;;;;;26.44;12.58;94645.75;5029665;28;20733;-52
2022/03/25 10:51:25;;;;;;;25.77;16.80;;;;;;;25.73;13.41;94651.88;5029430;28;20052;-52
2022/03/25 10:54:00;;;;;;;23.65;16.25;;;;;;;29.76;10.74;94644.22;5025228;28;20048;-48
2022/03/25 10:56:28;;;;;;;21.42;16.75;;;;;;;30.00;10.35;94641.47;5019007;28;20037;-53
2022/03/25 10:58:57;;;;;;;21.58;16.10;;;;;;;27.85;11.05;94647.06;5028343;28;20042;-54
2022/03/25 11:01:24;;;;;;;20.00;15.73;;;;;;;29.60;10.61;94635.31;5030676;28;20486;-55
2022/03/25 11:03:52;;;;;;;23.87;16.47;;;;;;;32.55;9.08;94639.03;5030442;28;20498;-54
2022/03/25 11:06:19;;;;;;;18.60;15.25;;;;;;;33.25;9.05;94633.03;5030550;28;20091;-58
2022/03/25 11:08:47;;;;;;;20.85;16.30;;;;;;;29.74;10.13;94636.25;5030080;28;20049;-56
2022/03/25 11:11:17;;;;;;;20.88;16.90;;;;;;;28.86;11.00;94632.06;5030524;28;20037;-51
2022/03/25 11:13:45;;;;;;;21.48;15.68;;;;;;;30.15;10.34;94634.66;5029829;28;20053;-51
2022/03/25 11:16:15;;;;;;;20.47;16.00;;;;;;;31.50;9.50;94636.03;5030475;28;20039;-51
2022/03/25 11:18:43;;;;;;;21.75;16.25;;;;;;;29.38;10.85;94635.41;5029912;28;20045;-58
2022/03/25 11:21:12;;;;;;;22.92;16.70;;;;;;;29.33;10.99;94631.34;5030410;28;20049;-53
2022/03/25 11:23:52;;;;;;;21.25;16.25;;;;;;;28.27;11.68;94624.72;5029986;28;20042;-53
2022/03/25 11:26:24;;;;;;;20.25;15.45;;;;;;;30.00;10.44;94624.50;5030362;28;20126;-56
2022/03/25 11:28:58;;;;;;;19.70;15.00;;;;;;;30.49;10.59;94620.22;5029504;28;20041;-52
2022/03/25 11:31:25;;;;;;;21.55;16.33;;;;;;;25.60;13.34;94618.53;5030103;28;20049;-52